Nita E — WTH5609 — position and weather

sailwx.info

Track history (hours):
 
Tides and Currents Weather Stations Pressure Air Temp Water Temp Dewpoint Dewpoint Depression Visibility Wind Speed Wind Dir Waves Ship Positions

Nita E

Owner: ECHO TOWING SERVICE INC, BAYTOWN, TX. More information available from US FCC via Universal Licensing System and Coast Guard Vessel Documentation Center.

Last reported at 2018-Jul-22 12:30 UTC. Time now 2018-Jul-22 12:38 UTC.
Position N 29°46' W 095°06'.

Length 18 m; draft 2.2 m.

Type: Tug. MMSI: 365920564.

Date/timePositionNaut miles runAvg speedWind from/ knotsBaromVisibWave heightAir tempDewpointWater temp
2018-Jul-22 12:30N 29°46' W 095°06'1 1.3
2018-Jul-22 11:59N 29°46' W 095°06'0 0.0
2018-Jul-22 11:29N 29°46' W 095°06'0 0.0
2018-Jul-22 10:56N 29°46' W 095°06'0 0.0
2018-Jul-22 10:30N 29°46' W 095°06'0 0.0
2018-Jul-22 10:00N 29°46' W 095°06'0 0.0
2018-Jul-22 09:27N 29°46' W 095°06'0 0.0
2018-Jul-22 09:00N 29°46' W 095°06'0 0.0
2018-Jul-22 08:29N 29°46' W 095°06'0 0.0
2018-Jul-22 08:00N 29°46' W 095°06'0 0.0
2018-Jul-22 07:30N 29°46' W 095°06'0 0.0
2018-Jul-22 06:59N 29°46' W 095°06'0 0.0
2018-Jul-22 06:30N 29°46' W 095°06'0 0.0
2018-Jul-22 06:01N 29°46' W 095°06'0 0.0
2018-Jul-22 05:30N 29°46' W 095°06'0 0.0
2018-Jul-22 04:58N 29°46' W 095°06'0 0.0
2018-Jul-22 04:29N 29°46' W 095°06'0 0.0
2018-Jul-22 03:58N 29°46' W 095°06'0 0.0
2018-Jul-22 03:28N 29°46' W 095°06'0 0.3
2018-Jul-22 02:59N 29°46' W 095°05'1 1.3
2018-Jul-22 02:29N 29°46' W 095°06'6 0.4
2018-Jul-21 12:45N 29°44' W 095°12'0 0.0
2018-Jul-21 11:45N 29°44' W 095°12'0 0.0
2018-Jul-21 11:30N 29°44' W 095°12'0 0.0
2018-Jul-21 10:04N 29°44' W 095°12'0 0.0
2018-Jul-21 09:59N 29°44' W 095°12'0 0.0
2018-Jul-21 09:30N 29°44' W 095°12'0 0.0
2018-Jul-21 08:52N 29°44' W 095°12'0 0.0
2018-Jul-21 08:30N 29°44' W 095°12'0 0.0
2018-Jul-21 07:55N 29°44' W 095°12'0 0.1
2018-Jul-21 07:28N 29°44' W 095°12'0 0.0
2018-Jul-21 07:00N 29°44' W 095°12'0 0.1
2018-Jul-21 06:29N 29°44' W 095°12'0 0.0
2018-Jul-21 06:01N 29°44' W 095°12'0 0.0
2018-Jul-21 05:28N 29°44' W 095°12'0 0.8
2018-Jul-21 04:55N 29°44' W 095°12'1 2.7
2018-Jul-21 04:28N 29°45' W 095°11'1 2.8
2018-Jul-21 03:57N 29°44' W 095°09'2 3.0
2018-Jul-21 03:25N 29°44' W 095°07'2 3.0
2018-Jul-21 02:54N 29°45' W 095°06'1 1.8
2018-Jul-21 02:17N 29°46' W 095°05'1 2.6
2018-Jul-21 02:00N 29°46' W 095°06'3 0.2
2018-Jul-20 13:00N 29°48' W 095°04'1 2.7
2018-Jul-20 12:30N 29°47' W 095°04'1 2.3
2018-Jul-20 12:00N 29°46' W 095°05'0 0.0
2018-Jul-20 11:30N 29°46' W 095°05'0 0.0
2018-Jul-20 11:00N 29°46' W 095°05'0 0.0
2018-Jul-20 10:30N 29°46' W 095°05'0 0.3
2018-Jul-20 10:00N 29°46' W 095°05'1 2.5
2018-Jul-20 09:27N 29°45' W 095°06'0 0.0
2018-Jul-20 08:58N 29°45' W 095°06'0 0.1
2018-Jul-20 08:30N 29°45' W 095°06'0 0.0
2018-Jul-20 07:58N 29°45' W 095°06'0 0.5
2018-Jul-20 07:30N 29°45' W 095°06'0 0.0
2018-Jul-20 07:00N 29°45' W 095°06'0 0.0
2018-Jul-20 06:25N 29°45' W 095°06'1 2.2
2018-Jul-20 06:00N 29°46' W 095°05'1 2.0
2018-Jul-20 05:30N 29°46' W 095°05'2 3.1
2018-Jul-20 05:00N 29°46' W 095°06'0 0.0
2018-Jul-20 04:30N 29°46' W 095°06'0 0.2
2018-Jul-20 04:00N 29°46' W 095°06'0 0.7
2018-Jul-20 03:30N 29°46' W 095°06'0 0.7
2018-Jul-20 02:51N 29°46' W 095°06'1 0.0
2018-Jul-19 08:32N 29°46' W 095°05'0 0.4
2018-Jul-19 08:11N 29°46' W 095°05'0 1.7
2018-Jul-19 08:00N 29°46' W 095°05'1 0.2
2018-Jul-19 04:16N 29°45' W 095°06'1 0.0
2018-Jul-18 12:05N 29°46' W 095°06'1 2.6
2018-Jul-18 11:53N 29°45' W 095°06'1 0.4
2018-Jul-18 09:40N 29°45' W 095°06'1 3.9
2018-Jul-18 09:30N 29°45' W 095°06'1 0.6
2018-Jul-18 08:13N 29°46' W 095°05'0 0.0
2018-Jul-18 06:16N 29°46' W 095°05'7 0.4
2018-Jul-17 12:16N 29°44' W 095°14'1 3.3
2018-Jul-17 11:53N 29°43' W 095°15'0 0.0
2018-Jul-17 11:25N 29°43' W 095°15'1 1.6
2018-Jul-17 10:58N 29°44' W 095°16'0 0.0
2018-Jul-17 10:28N 29°44' W 095°16'0 0.1
2018-Jul-17 10:00N 29°44' W 095°16'0 0.0
2018-Jul-17 09:30N 29°44' W 095°16'0 0.0
2018-Jul-17 09:00N 29°44' W 095°16'0 0.0
2018-Jul-17 08:29N 29°44' W 095°16'0 0.0
2018-Jul-17 08:00N 29°44' W 095°16'0 0.0
2018-Jul-17 07:30N 29°44' W 095°16'0 0.0
2018-Jul-17 07:00N 29°44' W 095°16'0 0.0
2018-Jul-17 06:30N 29°44' W 095°16'0 0.0
2018-Jul-17 05:58N 29°44' W 095°16'0 0.0
2018-Jul-17 05:31N 29°44' W 095°16'0 0.0
2018-Jul-17 05:00N 29°44' W 095°16'0 0.0
2018-Jul-17 04:30N 29°44' W 095°16'0 0.0
2018-Jul-17 04:00N 29°44' W 095°16'0 0.0
2018-Jul-16 13:00N 29°44' W 095°16'0 0.0
2018-Jul-16 12:29N 29°44' W 095°16'  
Track history (hours):
 
Tides and Currents Weather Stations Pressure Air Temp Water Temp Dewpoint Dewpoint Depression Visibility Wind Speed Wind Dir Waves Ship Positions

Nita E

Owner: ECHO TOWING SERVICE INC, BAYTOWN, TX. More information available from US FCC via Universal Licensing System and Coast Guard Vessel Documentation Center.

Last reported at 2018-Jul-22 12:30 UTC. Time now 2018-Jul-22 12:38 UTC.
Position N 29°46' W 095°06'.

Length 18 m; draft 2.2 m.

Type: Tug. MMSI: 365920564.

Date/timePositionNaut miles runAvg speedWind from/ knotsBaromVisibWave heightAir tempDewpointWater temp
2018-Jul-22 12:30N 29°46' W 095°06'1 1.3
2018-Jul-22 11:59N 29°46' W 095°06'0 0.0
2018-Jul-22 11:29N 29°46' W 095°06'0 0.0
2018-Jul-22 10:56N 29°46' W 095°06'0 0.0
2018-Jul-22 10:30N 29°46' W 095°06'0 0.0
2018-Jul-22 10:00N 29°46' W 095°06'0 0.0
2018-Jul-22 09:27N 29°46' W 095°06'0 0.0
2018-Jul-22 09:00N 29°46' W 095°06'0 0.0
2018-Jul-22 08:29N 29°46' W 095°06'0 0.0
2018-Jul-22 08:00N 29°46' W 095°06'0 0.0
2018-Jul-22 07:30N 29°46' W 095°06'0 0.0
2018-Jul-22 06:59N 29°46' W 095°06'0 0.0
2018-Jul-22 06:30N 29°46' W 095°06'0 0.0
2018-Jul-22 06:01N 29°46' W 095°06'0 0.0
2018-Jul-22 05:30N 29°46' W 095°06'0 0.0
2018-Jul-22 04:58N 29°46' W 095°06'0 0.0
2018-Jul-22 04:29N 29°46' W 095°06'0 0.0
2018-Jul-22 03:58N 29°46' W 095°06'0 0.0
2018-Jul-22 03:28N 29°46' W 095°06'0 0.3
2018-Jul-22 02:59N 29°46' W 095°05'1 1.3
2018-Jul-22 02:29N 29°46' W 095°06'6 0.4
2018-Jul-21 12:45N 29°44' W 095°12'0 0.0
2018-Jul-21 11:45N 29°44' W 095°12'0 0.0
2018-Jul-21 11:30N 29°44' W 095°12'0 0.0
2018-Jul-21 10:04N 29°44' W 095°12'0 0.0
2018-Jul-21 09:59N 29°44' W 095°12'0 0.0
2018-Jul-21 09:30N 29°44' W 095°12'0 0.0
2018-Jul-21 08:52N 29°44' W 095°12'0 0.0
2018-Jul-21 08:30N 29°44' W 095°12'0 0.0
2018-Jul-21 07:55N 29°44' W 095°12'0 0.1
2018-Jul-21 07:28N 29°44' W 095°12'0 0.0
2018-Jul-21 07:00N 29°44' W 095°12'0 0.1
2018-Jul-21 06:29N 29°44' W 095°12'0 0.0
2018-Jul-21 06:01N 29°44' W 095°12'0 0.0
2018-Jul-21 05:28N 29°44' W 095°12'0 0.8
2018-Jul-21 04:55N 29°44' W 095°12'1 2.7
2018-Jul-21 04:28N 29°45' W 095°11'1 2.8
2018-Jul-21 03:57N 29°44' W 095°09'2 3.0
2018-Jul-21 03:25N 29°44' W 095°07'2 3.0
2018-Jul-21 02:54N 29°45' W 095°06'1 1.8
2018-Jul-21 02:17N 29°46' W 095°05'1 2.6
2018-Jul-21 02:00N 29°46' W 095°06'3 0.2
2018-Jul-20 13:00N 29°48' W 095°04'1 2.7
2018-Jul-20 12:30N 29°47' W 095°04'1 2.3
2018-Jul-20 12:00N 29°46' W 095°05'0 0.0
2018-Jul-20 11:30N 29°46' W 095°05'0 0.0
2018-Jul-20 11:00N 29°46' W 095°05'0 0.0
2018-Jul-20 10:30N 29°46' W 095°05'0 0.3
2018-Jul-20 10:00N 29°46' W 095°05'1 2.5
2018-Jul-20 09:27N 29°45' W 095°06'0 0.0
2018-Jul-20 08:58N 29°45' W 095°06'0 0.1
2018-Jul-20 08:30N 29°45' W 095°06'0 0.0
2018-Jul-20 07:58N 29°45' W 095°06'0 0.5
2018-Jul-20 07:30N 29°45' W 095°06'0 0.0
2018-Jul-20 07:00N 29°45' W 095°06'0 0.0
2018-Jul-20 06:25N 29°45' W 095°06'1 2.2
2018-Jul-20 06:00N 29°46' W 095°05'1 2.0
2018-Jul-20 05:30N 29°46' W 095°05'2 3.1
2018-Jul-20 05:00N 29°46' W 095°06'0 0.0
2018-Jul-20 04:30N 29°46' W 095°06'0 0.2
2018-Jul-20 04:00N 29°46' W 095°06'0 0.7
2018-Jul-20 03:30N 29°46' W 095°06'0 0.7
2018-Jul-20 02:51N 29°46' W 095°06'1 0.0
2018-Jul-19 08:32N 29°46' W 095°05'0 0.4
2018-Jul-19 08:11N 29°46' W 095°05'0 1.7
2018-Jul-19 08:00N 29°46' W 095°05'1 0.2
2018-Jul-19 04:16N 29°45' W 095°06'1 0.0
2018-Jul-18 12:05N 29°46' W 095°06'1 2.6
2018-Jul-18 11:53N 29°45' W 095°06'1 0.4
2018-Jul-18 09:40N 29°45' W 095°06'1 3.9
2018-Jul-18 09:30N 29°45' W 095°06'1 0.6
2018-Jul-18 08:13N 29°46' W 095°05'0 0.0
2018-Jul-18 06:16N 29°46' W 095°05'7 0.4
2018-Jul-17 12:16N 29°44' W 095°14'1 3.3
2018-Jul-17 11:53N 29°43' W 095°15'0 0.0
2018-Jul-17 11:25N 29°43' W 095°15'1 1.6
2018-Jul-17 10:58N 29°44' W 095°16'0 0.0
2018-Jul-17 10:28N 29°44' W 095°16'0 0.1
2018-Jul-17 10:00N 29°44' W 095°16'0 0.0
2018-Jul-17 09:30N 29°44' W 095°16'0 0.0
2018-Jul-17 09:00N 29°44' W 095°16'0 0.0
2018-Jul-17 08:29N 29°44' W 095°16'0 0.0
2018-Jul-17 08:00N 29°44' W 095°16'0 0.0
2018-Jul-17 07:30N 29°44' W 095°16'0 0.0
2018-Jul-17 07:00N 29°44' W 095°16'0 0.0
2018-Jul-17 06:30N 29°44' W 095°16'0 0.0
2018-Jul-17 05:58N 29°44' W 095°16'0 0.0
2018-Jul-17 05:31N 29°44' W 095°16'0 0.0
2018-Jul-17 05:00N 29°44' W 095°16'0 0.0
2018-Jul-17 04:30N 29°44' W 095°16'0 0.0
2018-Jul-17 04:00N 29°44' W 095°16'0 0.0
2018-Jul-16 13:00N 29°44' W 095°16'0 0.0
2018-Jul-16 12:29N 29°44' W 095°16'  

Dump ship's entire track history